sensor_id;sensor_type;location;lat;lon;timestamp;temperature;humidity
52725;DHT22;38621;52.830;6.914;2023-06-14T00:00:40;15.80;91.40
52725;DHT22;38621;52.830;6.914;2023-06-14T00:03:07;15.80;91.50
52725;DHT22;38621;52.830;6.914;2023-06-14T00:05:37;15.80;91.60
52725;DHT22;38621;52.830;6.914;2023-06-14T00:08:09;15.70;91.80
52725;DHT22;38621;52.830;6.914;2023-06-14T00:10:36;15.60;92.00
52725;DHT22;38621;52.830;6.914;2023-06-14T00:13:02;15.50;92.20
52725;DHT22;38621;52.830;6.914;2023-06-14T00:15:30;15.40;92.50
52725;DHT22;38621;52.830;6.914;2023-06-14T00:17:59;15.30;92.80
52725;DHT22;38621;52.830;6.914;2023-06-14T00:20:30;15.30;93.10
52725;DHT22;38621;52.830;6.914;2023-06-14T00:22:58;15.20;93.50
52725;DHT22;38621;52.830;6.914;2023-06-14T00:25:24;15.20;93.80
52725;DHT22;38621;52.830;6.914;2023-06-14T00:27:57;15.10;94.00
52725;DHT22;38621;52.830;6.914;2023-06-14T00:30:23;15.10;94.50
52725;DHT22;38621;52.830;6.914;2023-06-14T00:32:49;15.00;94.70
52725;DHT22;38621;52.830;6.914;2023-06-14T00:35:15;15.00;95.00
52725;DHT22;38621;52.830;6.914;2023-06-14T00:37:41;15.00;95.40
52725;DHT22;38621;52.830;6.914;2023-06-14T00:40:07;14.90;95.70
52725;DHT22;38621;52.830;6.914;2023-06-14T00:42:33;14.80;96.20
52725;DHT22;38621;52.830;6.914;2023-06-14T00:44:59;14.80;96.50
52725;DHT22;38621;52.830;6.914;2023-06-14T00:47:25;14.70;96.80
52725;DHT22;38621;52.830;6.914;2023-06-14T00:49:53;14.70;97.20
52725;DHT22;38621;52.830;6.914;2023-06-14T00:52:19;14.70;97.50
52725;DHT22;38621;52.830;6.914;2023-06-14T00:54:45;14.60;97.80
52725;DHT22;38621;52.830;6.914;2023-06-14T00:57:12;14.60;98.20
52725;DHT22;38621;52.830;6.914;2023-06-14T01:02:08;14.60;98.90
52725;DHT22;38621;52.830;6.914;2023-06-14T01:04:34;14.60;99.10
52725;DHT22;38621;52.830;6.914;2023-06-14T01:07:12;14.60;99.40
52725;DHT22;38621;52.830;6.914;2023-06-14T01:12:53;14.60;99.90
52725;DHT22;38621;52.830;6.914;2023-06-14T01:15:24;14.60;99.90
52725;DHT22;38621;52.830;6.914;2023-06-14T01:17:50;14.60;99.90
52725;DHT22;38621;52.830;6.914;2023-06-14T01:20:18;14.60;99.90
52725;DHT22;38621;52.830;6.914;2023-06-14T01:22:52;14.70;99.90
52725;DHT22;38621;52.830;6.914;2023-06-14T01:25:19;14.70;99.90
52725;DHT22;38621;52.830;6.914;2023-06-14T01:28:02;14.60;99.90
52725;DHT22;38621;52.830;6.914;2023-06-14T01:30:29;14.60;99.90
52725;DHT22;38621;52.830;6.914;2023-06-14T01:32:56;14.60;99.90
52725;DHT22;38621;52.830;6.914;2023-06-14T01:35:23;14.60;99.90
52725;DHT22;38621;52.830;6.914;2023-06-14T01:37:50;14.60;99.90
52725;DHT22;38621;52.830;6.914;2023-06-14T01:40:18;14.60;99.90
52725;DHT22;38621;52.830;6.914;2023-06-14T01:42:47;14.60;99.90
52725;DHT22;38621;52.830;6.914;2023-06-14T01:45:14;14.50;99.90
52725;DHT22;38621;52.830;6.914;2023-06-14T01:47:41;14.50;99.90
52725;DHT22;38621;52.830;6.914;2023-06-14T01:50:07;14.50;99.90
52725;DHT22;38621;52.830;6.914;2023-06-14T01:52:33;14.40;99.90
52725;DHT22;38621;52.830;6.914;2023-06-14T01:54:59;14.30;99.90
52725;DHT22;38621;52.830;6.914;2023-06-14T01:57:27;14.20;99.90
52725;DHT22;38621;52.830;6.914;2023-06-14T01:59:53;14.20;99.90
52725;DHT22;38621;52.830;6.914;2023-06-14T02:02:19;14.20;99.90
52725;DHT22;38621;52.830;6.914;2023-06-14T02:04:44;14.20;99.90
52725;DHT22;38621;52.830;6.914;2023-06-14T02:07:13;14.20;99.90
52725;DHT22;38621;52.830;6.914;2023-06-14T02:09:39;14.20;99.90
52725;DHT22;38621;52.830;6.914;2023-06-14T02:12:05;14.20;99.90
52725;DHT22;38621;52.830;6.914;2023-06-14T02:14:31;14.20;99.90
52725;DHT22;38621;52.830;6.914;2023-06-14T02:16:57;14.10;99.90
52725;DHT22;38621;52.830;6.914;2023-06-14T02:19:22;14.10;99.90
52725;DHT22;38621;52.830;6.914;2023-06-14T02:21:48;14.10;99.90
52725;DHT22;38621;52.830;6.914;2023-06-14T02:24:14;14.10;99.90
52725;DHT22;38621;52.830;6.914;2023-06-14T02:26:40;14.00;99.90
52725;DHT22;38621;52.830;6.914;2023-06-14T02:29:08;14.00;99.90
52725;DHT22;38621;52.830;6.914;2023-06-14T02:31:36;13.90;99.90
52725;DHT22;38621;52.830;6.914;2023-06-14T02:34:02;13.90;99.90
52725;DHT22;38621;52.830;6.914;2023-06-14T02:36:28;13.90;99.90
52725;DHT22;38621;52.830;6.914;2023-06-14T02:38:56;13.90;99.90
52725;DHT22;38621;52.830;6.914;2023-06-14T02:41:26;13.80;99.90
52725;DHT22;38621;52.830;6.914;2023-06-14T02:43:53;13.80;99.90
52725;DHT22;38621;52.830;6.914;2023-06-14T02:46:18;13.80;99.90
52725;DHT22;38621;52.830;6.914;2023-06-14T02:48:44;13.70;99.90
52725;DHT22;38621;52.830;6.914;2023-06-14T02:51:10;13.60;99.90
52725;DHT22;38621;52.830;6.914;2023-06-14T02:53:36;13.60;99.90
52725;DHT22;38621;52.830;6.914;2023-06-14T02:56:02;13.50;99.90
52725;DHT22;38621;52.830;6.914;2023-06-14T02:58:29;13.50;99.90
52725;DHT22;38621;52.830;6.914;2023-06-14T03:00:55;13.50;99.90
52725;DHT22;38621;52.830;6.914;2023-06-14T03:03:21;13.50;99.90
52725;DHT22;38621;52.830;6.914;2023-06-14T03:05:50;13.50;99.90
52725;DHT22;38621;52.830;6.914;2023-06-14T03:08:16;13.40;99.90
52725;DHT22;38621;52.830;6.914;2023-06-14T03:10:47;13.40;99.90
52725;DHT22;38621;52.830;6.914;2023-06-14T03:13:14;13.40;99.90
52725;DHT22;38621;52.830;6.914;2023-06-14T03:15:41;13.40;99.90
52725;DHT22;38621;52.830;6.914;2023-06-14T03:18:11;13.30;99.90
52725;DHT22;38621;52.830;6.914;2023-06-14T03:20:38;13.30;99.90
52725;DHT22;38621;52.830;6.914;2023-06-14T03:23:04;13.40;99.90
52725;DHT22;38621;52.830;6.914;2023-06-14T03:25:31;13.40;99.90
52725;DHT22;38621;52.830;6.914;2023-06-14T03:28:04;13.40;99.90
52725;DHT22;38621;52.830;6.914;2023-06-14T03:30:30;13.40;99.90
52725;DHT22;38621;52.830;6.914;2023-06-14T03:32:56;13.40;99.90
52725;DHT22;38621;52.830;6.914;2023-06-14T03:35:23;13.40;99.90
52725;DHT22;38621;52.830;6.914;2023-06-14T03:37:49;13.30;99.90
52725;DHT22;38621;52.830;6.914;2023-06-14T03:40:17;13.40;99.90
52725;DHT22;38621;52.830;6.914;2023-06-14T03:42:43;13.40;99.90
52725;DHT22;38621;52.830;6.914;2023-06-14T03:45:09;13.40;99.90
52725;DHT22;38621;52.830;6.914;2023-06-14T03:47:35;13.40;99.90
52725;DHT22;38621;52.830;6.914;2023-06-14T03:50:04;13.40;99.90
52725;DHT22;38621;52.830;6.914;2023-06-14T03:52:31;13.40;99.90
52725;DHT22;38621;52.830;6.914;2023-06-14T03:54:58;13.50;99.90
52725;DHT22;38621;52.830;6.914;2023-06-14T03:57:26;13.50;99.90
52725;DHT22;38621;52.830;6.914;2023-06-14T03:59:51;13.50;99.90
52725;DHT22;38621;52.830;6.914;2023-06-14T04:02:17;13.50;99.90
52725;DHT22;38621;52.830;6.914;2023-06-14T04:04:44;13.60;99.90
52725;DHT22;38621;52.830;6.914;2023-06-14T04:07:16;13.60;99.90
52725;DHT22;38621;52.830;6.914;2023-06-14T04:09:45;13.70;99.90
52725;DHT22;38621;52.830;6.914;2023-06-14T04:12:11;13.70;99.90
52725;DHT22;38621;52.830;6.914;2023-06-14T04:14:40;13.80;99.90
52725;DHT22;38621;52.830;6.914;2023-06-14T04:17:06;13.80;99.90
52725;DHT22;38621;52.830;6.914;2023-06-14T04:19:32;13.90;99.90
52725;DHT22;38621;52.830;6.914;2023-06-14T04:21:58;13.90;99.90
52725;DHT22;38621;52.830;6.914;2023-06-14T04:24:27;14.00;99.90
52725;DHT22;38621;52.830;6.914;2023-06-14T04:27:00;14.10;99.90
52725;DHT22;38621;52.830;6.914;2023-06-14T04:29:29;14.20;99.90
52725;DHT22;38621;52.830;6.914;2023-06-14T04:31:55;14.20;99.90
52725;DHT22;38621;52.830;6.914;2023-06-14T04:34:25;14.30;99.90
52725;DHT22;38621;52.830;6.914;2023-06-14T04:36:55;14.40;99.90
52725;DHT22;38621;52.830;6.914;2023-06-14T04:39:22;14.50;99.90
52725;DHT22;38621;52.830;6.914;2023-06-14T04:41:49;14.60;99.90
52725;DHT22;38621;52.830;6.914;2023-06-14T04:44:18;14.60;99.90
52725;DHT22;38621;52.830;6.914;2023-06-14T04:46:45;14.70;99.90
52725;DHT22;38621;52.830;6.914;2023-06-14T04:49:12;14.80;99.90
52725;DHT22;38621;52.830;6.914;2023-06-14T04:51:40;14.90;99.90
52725;DHT22;38621;52.830;6.914;2023-06-14T04:54:06;15.00;99.90
52725;DHT22;38621;52.830;6.914;2023-06-14T04:56:36;15.20;99.90
52725;DHT22;38621;52.830;6.914;2023-06-14T04:59:03;15.30;99.90
52725;DHT22;38621;52.830;6.914;2023-06-14T05:01:32;15.40;99.90
52725;DHT22;38621;52.830;6.914;2023-06-14T05:03:59;15.50;99.90
52725;DHT22;38621;52.830;6.914;2023-06-14T05:06:25;15.60;99.90
52725;DHT22;38621;52.830;6.914;2023-06-14T05:08:53;15.70;99.90
52725;DHT22;38621;52.830;6.914;2023-06-14T05:11:19;15.90;99.90
52725;DHT22;38621;52.830;6.914;2023-06-14T05:13:45;16.00;99.90
52725;DHT22;38621;52.830;6.914;2023-06-14T05:16:12;16.10;99.90
52725;DHT22;38621;52.830;6.914;2023-06-14T05:18:38;16.20;99.90
52725;DHT22;38621;52.830;6.914;2023-06-14T05:21:05;16.30;99.90
52725;DHT22;38621;52.830;6.914;2023-06-14T05:23:31;16.40;99.90
52725;DHT22;38621;52.830;6.914;2023-06-14T05:25:57;16.50;99.90
52725;DHT22;38621;52.830;6.914;2023-06-14T05:28:24;16.60;99.90
52725;DHT22;38621;52.830;6.914;2023-06-14T05:30:49;16.70;99.90
52725;DHT22;38621;52.830;6.914;2023-06-14T05:33:15;16.90;99.90
52725;DHT22;38621;52.830;6.914;2023-06-14T05:35:41;17.00;99.90
52725;DHT22;38621;52.830;6.914;2023-06-14T05:38:06;17.10;99.90
52725;DHT22;38621;52.830;6.914;2023-06-14T05:40:33;17.20;99.90
52725;DHT22;38621;52.830;6.914;2023-06-14T05:42:59;17.30;99.90
52725;DHT22;38621;52.830;6.914;2023-06-14T05:45:25;17.40;99.90
52725;DHT22;38621;52.830;6.914;2023-06-14T05:47:51;17.40;99.90
52725;DHT22;38621;52.830;6.914;2023-06-14T05:50:17;17.50;99.90
52725;DHT22;38621;52.830;6.914;2023-06-14T05:52:43;17.60;99.90
52725;DHT22;38621;52.830;6.914;2023-06-14T05:55:09;17.80;99.90
52725;DHT22;38621;52.830;6.914;2023-06-14T05:57:37;17.90;99.90
52725;DHT22;38621;52.830;6.914;2023-06-14T06:00:03;18.00;99.90
52725;DHT22;38621;52.830;6.914;2023-06-14T06:02:36;18.10;99.90
52725;DHT22;38621;52.830;6.914;2023-06-14T06:05:01;18.20;99.90
52725;DHT22;38621;52.830;6.914;2023-06-14T06:07:27;18.30;99.90
52725;DHT22;38621;52.830;6.914;2023-06-14T06:09:53;18.40;99.90
52725;DHT22;38621;52.830;6.914;2023-06-14T06:12:19;18.50;99.90
52725;DHT22;38621;52.830;6.914;2023-06-14T06:14:44;18.60;99.90
52725;DHT22;38621;52.830;6.914;2023-06-14T06:17:10;18.70;99.90
52725;DHT22;38621;52.830;6.914;2023-06-14T06:19:36;18.80;99.90
52725;DHT22;38621;52.830;6.914;2023-06-14T06:22:02;18.90;99.90
52725;DHT22;38621;52.830;6.914;2023-06-14T06:24:30;19.00;99.90
52725;DHT22;38621;52.830;6.914;2023-06-14T06:26:55;19.10;99.90
52725;DHT22;38621;52.830;6.914;2023-06-14T06:29:21;19.20;99.90
52725;DHT22;38621;52.830;6.914;2023-06-14T06:31:47;19.30;99.90
52725;DHT22;38621;52.830;6.914;2023-06-14T06:34:12;19.40;99.90
52725;DHT22;38621;52.830;6.914;2023-06-14T06:36:38;19.40;99.90
52725;DHT22;38621;52.830;6.914;2023-06-14T06:39:04;19.40;99.90
52725;DHT22;38621;52.830;6.914;2023-06-14T06:41:37;19.50;99.90
52725;DHT22;38621;52.830;6.914;2023-06-14T06:44:03;19.60;99.90
52725;DHT22;38621;52.830;6.914;2023-06-14T06:46:29;19.80;99.90
52725;DHT22;38621;52.830;6.914;2023-06-14T06:48:54;19.90;99.90
52725;DHT22;38621;52.830;6.914;2023-06-14T06:51:20;20.00;99.90
52725;DHT22;38621;52.830;6.914;2023-06-14T06:53:52;20.10;99.90
52725;DHT22;38621;52.830;6.914;2023-06-14T06:56:18;20.20;99.90
52725;DHT22;38621;52.830;6.914;2023-06-14T06:58:45;20.30;99.90
52725;DHT22;38621;52.830;6.914;2023-06-14T07:01:10;20.40;99.90
52725;DHT22;38621;52.830;6.914;2023-06-14T07:03:37;20.50;99.90
52725;DHT22;38621;52.830;6.914;2023-06-14T07:06:03;20.50;99.90
52725;DHT22;38621;52.830;6.914;2023-06-14T07:08:29;20.60;99.90
52725;DHT22;38621;52.830;6.914;2023-06-14T07:10:54;20.60;99.90
52725;DHT22;38621;52.830;6.914;2023-06-14T07:13:20;20.70;99.90
52725;DHT22;38621;52.830;6.914;2023-06-14T07:15:46;20.80;99.90
52725;DHT22;38621;52.830;6.914;2023-06-14T07:18:12;20.80;99.90
52725;DHT22;38621;52.830;6.914;2023-06-14T07:20:38;20.90;99.90
52725;DHT22;38621;52.830;6.914;2023-06-14T07:23:04;20.90;99.90
52725;DHT22;38621;52.830;6.914;2023-06-14T07:25:31;21.00;99.90
52725;DHT22;38621;52.830;6.914;2023-06-14T07:27:56;21.20;99.90
52725;DHT22;38621;52.830;6.914;2023-06-14T07:30:22;21.20;99.90
52725;DHT22;38621;52.830;6.914;2023-06-14T07:32:54;21.40;99.90
52725;DHT22;38621;52.830;6.914;2023-06-14T07:35:20;21.50;99.90
52725;DHT22;38621;52.830;6.914;2023-06-14T07:37:46;21.60;99.90
52725;DHT22;38621;52.830;6.914;2023-06-14T07:40:13;21.70;99.90
52725;DHT22;38621;52.830;6.914;2023-06-14T07:42:39;21.80;99.90
52725;DHT22;38621;52.830;6.914;2023-06-14T07:45:06;21.90;99.90
52725;DHT22;38621;52.830;6.914;2023-06-14T07:47:32;22.00;99.90
52725;DHT22;38621;52.830;6.914;2023-06-14T07:49:58;22.20;99.90
52725;DHT22;38621;52.830;6.914;2023-06-14T07:52:24;22.30;99.90
52725;DHT22;38621;52.830;6.914;2023-06-14T07:54:50;22.40;99.90
52725;DHT22;38621;52.830;6.914;2023-06-14T07:57:16;22.50;99.90
52725;DHT22;38621;52.830;6.914;2023-06-14T07:59:41;22.60;99.90
52725;DHT22;38621;52.830;6.914;2023-06-14T08:02:07;22.60;99.90
52725;DHT22;38621;52.830;6.914;2023-06-14T08:04:33;22.60;99.90
52725;DHT22;38621;52.830;6.914;2023-06-14T08:06:59;22.60;99.90
52725;DHT22;38621;52.830;6.914;2023-06-14T08:09:26;22.60;99.90
52725;DHT22;38621;52.830;6.914;2023-06-14T08:11:53;22.60;99.90
52725;DHT22;38621;52.830;6.914;2023-06-14T08:14:19;22.70;99.90
52725;DHT22;38621;52.830;6.914;2023-06-14T08:16:44;22.70;99.90
52725;DHT22;38621;52.830;6.914;2023-06-14T08:19:10;22.90;99.90
52725;DHT22;38621;52.830;6.914;2023-06-14T08:21:36;23.00;99.90
52725;DHT22;38621;52.830;6.914;2023-06-14T08:24:02;23.00;99.90
52725;DHT22;38621;52.830;6.914;2023-06-14T08:26:27;23.20;99.90
52725;DHT22;38621;52.830;6.914;2023-06-14T08:28:57;23.20;99.90
52725;DHT22;38621;52.830;6.914;2023-06-14T08:31:23;23.30;99.90
52725;DHT22;38621;52.830;6.914;2023-06-14T08:33:51;23.30;99.90
52725;DHT22;38621;52.830;6.914;2023-06-14T08:36:16;23.40;99.90
52725;DHT22;38621;52.830;6.914;2023-06-14T08:38:42;23.50;99.90
52725;DHT22;38621;52.830;6.914;2023-06-14T08:41:11;23.50;99.90
52725;DHT22;38621;52.830;6.914;2023-06-14T08:43:39;23.60;99.90
52725;DHT22;38621;52.830;6.914;2023-06-14T08:46:06;23.70;99.90
52725;DHT22;38621;52.830;6.914;2023-06-14T08:48:34;23.70;99.90
52725;DHT22;38621;52.830;6.914;2023-06-14T08:51:00;23.90;99.90
52725;DHT22;38621;52.830;6.914;2023-06-14T08:53:32;24.00;99.70
52725;DHT22;38621;52.830;6.914;2023-06-14T08:56:02;24.10;99.10
52725;DHT22;38621;52.830;6.914;2023-06-14T08:58:33;24.10;98.90
52725;DHT22;38621;52.830;6.914;2023-06-14T09:01:01;24.20;98.90
52725;DHT22;38621;52.830;6.914;2023-06-14T09:03:27;24.30;99.10
52725;DHT22;38621;52.830;6.914;2023-06-14T09:05:59;24.40;99.20
52725;DHT22;38621;52.830;6.914;2023-06-14T09:08:28;24.50;99.00
52725;DHT22;38621;52.830;6.914;2023-06-14T09:10:57;24.60;98.50
52725;DHT22;38621;52.830;6.914;2023-06-14T09:13:23;24.60;98.30
52725;DHT22;38621;52.830;6.914;2023-06-14T09:15:49;24.50;98.00
52725;DHT22;38621;52.830;6.914;2023-06-14T09:18:15;24.50;97.90
52725;DHT22;38621;52.830;6.914;2023-06-14T09:20:41;24.40;97.80
52725;DHT22;38621;52.830;6.914;2023-06-14T09:23:07;24.40;97.80
52725;DHT22;38621;52.830;6.914;2023-06-14T09:25:41;24.60;98.20
52725;DHT22;38621;52.830;6.914;2023-06-14T09:28:08;24.80;97.70
52725;DHT22;38621;52.830;6.914;2023-06-14T09:30:35;25.00;97.90
52725;DHT22;38621;52.830;6.914;2023-06-14T09:33:01;25.20;97.50
52725;DHT22;38621;52.830;6.914;2023-06-14T09:35:26;25.30;96.90
52725;DHT22;38621;52.830;6.914;2023-06-14T09:37:55;25.30;96.60
52725;DHT22;38621;52.830;6.914;2023-06-14T09:40:21;25.50;96.70
52725;DHT22;38621;52.830;6.914;2023-06-14T09:42:47;25.50;96.00
52725;DHT22;38621;52.830;6.914;2023-06-14T09:45:13;25.50;95.30
52725;DHT22;38621;52.830;6.914;2023-06-14T09:47:41;25.50;95.20
52725;DHT22;38621;52.830;6.914;2023-06-14T09:50:08;25.60;95.40
52725;DHT22;38621;52.830;6.914;2023-06-14T09:52:33;25.70;94.90
52725;DHT22;38621;52.830;6.914;2023-06-14T09:54:59;25.80;94.60
52725;DHT22;38621;52.830;6.914;2023-06-14T09:57:26;25.80;94.50
52725;DHT22;38621;52.830;6.914;2023-06-14T09:59:56;25.80;93.90
52725;DHT22;38621;52.830;6.914;2023-06-14T10:02:28;25.70;93.40
52725;DHT22;38621;52.830;6.914;2023-06-14T10:05:06;25.60;93.40
52725;DHT22;38621;52.830;6.914;2023-06-14T10:07:48;25.70;93.70
52725;DHT22;38621;52.830;6.914;2023-06-14T10:10:16;25.90;93.50
52725;DHT22;38621;52.830;6.914;2023-06-14T10:12:42;26.00;93.40
52725;DHT22;38621;52.830;6.914;2023-06-14T10:15:17;26.10;93.60
52725;DHT22;38621;52.830;6.914;2023-06-14T10:17:50;26.30;93.60
52725;DHT22;38621;52.830;6.914;2023-06-14T10:22:51;26.50;93.30
52725;DHT22;38621;52.830;6.914;2023-06-14T10:25:31;26.60;92.60
52725;DHT22;38621;52.830;6.914;2023-06-14T10:30:37;26.70;91.40
52725;DHT22;38621;52.830;6.914;2023-06-14T10:33:07;26.70;92.70
52725;DHT22;38621;52.830;6.914;2023-06-14T10:35:33;26.80;92.50
52725;DHT22;38621;52.830;6.914;2023-06-14T10:38:10;26.90;92.10
52725;DHT22;38621;52.830;6.914;2023-06-14T10:40:38;26.90;91.90
52725;DHT22;38621;52.830;6.914;2023-06-14T10:43:23;27.00;92.00
52725;DHT22;38621;52.830;6.914;2023-06-14T10:46:11;27.00;91.40
52725;DHT22;38621;52.830;6.914;2023-06-14T10:48:41;26.90;91.20
52725;DHT22;38621;52.830;6.914;2023-06-14T10:51:18;26.80;91.60
52725;DHT22;38621;52.830;6.914;2023-06-14T10:53:46;26.80;91.30
52725;DHT22;38621;52.830;6.914;2023-06-14T10:56:32;26.90;91.90
52725;DHT22;38621;52.830;6.914;2023-06-14T10:58:58;27.20;92.00
52725;DHT22;38621;52.830;6.914;2023-06-14T11:01:41;27.40;92.30
52725;DHT22;38621;52.830;6.914;2023-06-14T11:04:11;27.50;91.70
52725;DHT22;38621;52.830;6.914;2023-06-14T11:06:48;27.60;92.60
52725;DHT22;38621;52.830;6.914;2023-06-14T11:12:10;28.00;91.60
52725;DHT22;38621;52.830;6.914;2023-06-14T11:14:39;28.10;92.50
52725;DHT22;38621;52.830;6.914;2023-06-14T11:17:05;28.20;92.50
52725;DHT22;38621;52.830;6.914;2023-06-14T11:19:30;28.40;92.60
52725;DHT22;38621;52.830;6.914;2023-06-14T11:21:57;28.60;92.40
52725;DHT22;38621;52.830;6.914;2023-06-14T11:24:24;28.60;92.10
52725;DHT22;38621;52.830;6.914;2023-06-14T11:26:50;28.60;91.70
52725;DHT22;38621;52.830;6.914;2023-06-14T11:29:16;28.60;91.40
52725;DHT22;38621;52.830;6.914;2023-06-14T11:31:45;28.50;91.30
52725;DHT22;38621;52.830;6.914;2023-06-14T11:34:12;28.50;91.10
52725;DHT22;38621;52.830;6.914;2023-06-14T11:36:38;28.50;91.30
52725;DHT22;38621;52.830;6.914;2023-06-14T11:39:06;28.60;91.20
52725;DHT22;38621;52.830;6.914;2023-06-14T11:41:44;28.70;91.20
52725;DHT22;38621;52.830;6.914;2023-06-14T11:44:11;28.70;89.70
52725;DHT22;38621;52.830;6.914;2023-06-14T11:46:37;28.50;90.60
52725;DHT22;38621;52.830;6.914;2023-06-14T11:49:03;28.30;89.90
52725;DHT22;38621;52.830;6.914;2023-06-14T11:51:33;28.30;89.60
52725;DHT22;38621;52.830;6.914;2023-06-14T11:54:00;28.20;90.00
52725;DHT22;38621;52.830;6.914;2023-06-14T11:56:28;28.20;90.10
52725;DHT22;38621;52.830;6.914;2023-06-14T11:58:54;28.30;90.30
52725;DHT22;38621;52.830;6.914;2023-06-14T12:01:22;28.50;90.10
52725;DHT22;38621;52.830;6.914;2023-06-14T12:03:49;28.60;90.30
52725;DHT22;38621;52.830;6.914;2023-06-14T12:06:16;28.60;90.10
52725;DHT22;38621;52.830;6.914;2023-06-14T12:08:43;28.40;89.60
52725;DHT22;38621;52.830;6.914;2023-06-14T12:11:12;28.30;89.60
52725;DHT22;38621;52.830;6.914;2023-06-14T12:13:42;28.40;89.00
52725;DHT22;38621;52.830;6.914;2023-06-14T12:16:09;28.40;88.20
52725;DHT22;38621;52.830;6.914;2023-06-14T12:18:36;28.60;89.30
52725;DHT22;38621;52.830;6.914;2023-06-14T12:21:07;28.70;88.90
52725;DHT22;38621;52.830;6.914;2023-06-14T12:23:47;28.70;87.50
52725;DHT22;38621;52.830;6.914;2023-06-14T12:26:17;28.80;87.40
52725;DHT22;38621;52.830;6.914;2023-06-14T12:28:44;28.90;88.20
52725;DHT22;38621;52.830;6.914;2023-06-14T12:31:11;28.90;88.20
52725;DHT22;38621;52.830;6.914;2023-06-14T12:33:41;28.80;87.60
52725;DHT22;38621;52.830;6.914;2023-06-14T12:36:08;28.80;88.30
52725;DHT22;38621;52.830;6.914;2023-06-14T12:38:34;28.90;88.30
52725;DHT22;38621;52.830;6.914;2023-06-14T12:41:00;29.00;89.10
52725;DHT22;38621;52.830;6.914;2023-06-14T12:43:26;29.30;89.50
52725;DHT22;38621;52.830;6.914;2023-06-14T12:45:52;29.50;88.90
52725;DHT22;38621;52.830;6.914;2023-06-14T12:48:18;29.60;88.30
52725;DHT22;38621;52.830;6.914;2023-06-14T12:50:43;29.60;87.00
52725;DHT22;38621;52.830;6.914;2023-06-14T12:53:09;29.60;87.40
52725;DHT22;38621;52.830;6.914;2023-06-14T12:55:35;29.80;88.10
52725;DHT22;38621;52.830;6.914;2023-06-14T12:58:00;30.00;87.40
52725;DHT22;38621;52.830;6.914;2023-06-14T13:00:26;30.10;87.20
52725;DHT22;38621;52.830;6.914;2023-06-14T13:02:52;30.00;86.30
52725;DHT22;38621;52.830;6.914;2023-06-14T13:05:19;29.80;86.40
52725;DHT22;38621;52.830;6.914;2023-06-14T13:07:44;29.80;87.20
52725;DHT22;38621;52.830;6.914;2023-06-14T13:10:11;29.70;86.00
52725;DHT22;38621;52.830;6.914;2023-06-14T13:12:36;29.40;85.20
52725;DHT22;38621;52.830;6.914;2023-06-14T13:15:02;29.10;84.70
52725;DHT22;38621;52.830;6.914;2023-06-14T13:17:28;29.00;84.80
52725;DHT22;38621;52.830;6.914;2023-06-14T13:19:53;29.00;85.60
52725;DHT22;38621;52.830;6.914;2023-06-14T13:22:20;29.00;85.80
52725;DHT22;38621;52.830;6.914;2023-06-14T13:24:45;29.00;85.90
52725;DHT22;38621;52.830;6.914;2023-06-14T13:27:11;29.10;85.80
52725;DHT22;38621;52.830;6.914;2023-06-14T13:29:40;29.00;85.10
52725;DHT22;38621;52.830;6.914;2023-06-14T13:32:06;29.00;85.00
52725;DHT22;38621;52.830;6.914;2023-06-14T13:34:32;28.90;84.80
52725;DHT22;38621;52.830;6.914;2023-06-14T13:36:57;28.90;85.20
52725;DHT22;38621;52.830;6.914;2023-06-14T13:39:25;29.20;86.00
52725;DHT22;38621;52.830;6.914;2023-06-14T13:41:51;29.80;85.80
52725;DHT22;38621;52.830;6.914;2023-06-14T13:44:17;30.10;85.10
52725;DHT22;38621;52.830;6.914;2023-06-14T13:46:44;30.40;85.40
52725;DHT22;38621;52.830;6.914;2023-06-14T13:49:10;30.80;85.60
52725;DHT22;38621;52.830;6.914;2023-06-14T13:51:37;31.20;85.30
52725;DHT22;38621;52.830;6.914;2023-06-14T13:54:03;31.30;84.40
52725;DHT22;38621;52.830;6.914;2023-06-14T13:56:29;31.20;84.10
52725;DHT22;38621;52.830;6.914;2023-06-14T13:58:55;30.90;84.00
52725;DHT22;38621;52.830;6.914;2023-06-14T14:01:21;30.40;83.10
52725;DHT22;38621;52.830;6.914;2023-06-14T14:03:48;29.90;82.50
52725;DHT22;38621;52.830;6.914;2023-06-14T14:06:15;29.80;83.10
52725;DHT22;38621;52.830;6.914;2023-06-14T14:08:41;29.60;83.10
52725;DHT22;38621;52.830;6.914;2023-06-14T14:11:07;29.40;82.90
52725;DHT22;38621;52.830;6.914;2023-06-14T14:13:34;29.20;83.20
52725;DHT22;38621;52.830;6.914;2023-06-14T14:16:02;29.10;83.40
52725;DHT22;38621;52.830;6.914;2023-06-14T14:18:28;29.20;83.50
52725;DHT22;38621;52.830;6.914;2023-06-14T14:20:54;29.20;83.20
52725;DHT22;38621;52.830;6.914;2023-06-14T14:23:21;29.20;82.70
52725;DHT22;38621;52.830;6.914;2023-06-14T14:25:47;29.00;81.90
52725;DHT22;38621;52.830;6.914;2023-06-14T14:28:13;28.70;82.30
52725;DHT22;38621;52.830;6.914;2023-06-14T14:30:41;28.80;82.80
52725;DHT22;38621;52.830;6.914;2023-06-14T14:33:07;28.90;82.70
52725;DHT22;38621;52.830;6.914;2023-06-14T14:35:33;28.90;82.80
52725;DHT22;38621;52.830;6.914;2023-06-14T14:37:59;28.70;82.70
52725;DHT22;38621;52.830;6.914;2023-06-14T14:40:26;28.40;82.40
52725;DHT22;38621;52.830;6.914;2023-06-14T14:42:52;28.30;82.60
52725;DHT22;38621;52.830;6.914;2023-06-14T14:45:17;28.50;82.90
52725;DHT22;38621;52.830;6.914;2023-06-14T14:47:43;28.70;82.80
52725;DHT22;38621;52.830;6.914;2023-06-14T14:50:09;29.50;82.60
52725;DHT22;38621;52.830;6.914;2023-06-14T14:52:36;30.50;82.40
52725;DHT22;38621;52.830;6.914;2023-06-14T14:55:01;31.10;82.20
52725;DHT22;38621;52.830;6.914;2023-06-14T14:57:27;31.30;81.80
52725;DHT22;38621;52.830;6.914;2023-06-14T14:59:53;30.80;80.80
52725;DHT22;38621;52.830;6.914;2023-06-14T15:02:19;29.90;80.20
52725;DHT22;38621;52.830;6.914;2023-06-14T15:04:46;29.50;80.30
52725;DHT22;38621;52.830;6.914;2023-06-14T15:07:11;30.00;80.70
52725;DHT22;38621;52.830;6.914;2023-06-14T15:09:38;30.80;81.10
52725;DHT22;38621;52.830;6.914;2023-06-14T15:12:04;31.40;81.00
52725;DHT22;38621;52.830;6.914;2023-06-14T15:14:29;31.60;80.90
52725;DHT22;38621;52.830;6.914;2023-06-14T15:16:55;32.10;80.10
52725;DHT22;38621;52.830;6.914;2023-06-14T15:19:23;32.50;79.50
52725;DHT22;38621;52.830;6.914;2023-06-14T15:21:50;33.00;79.40
52725;DHT22;38621;52.830;6.914;2023-06-14T15:24:16;33.30;79.00
52725;DHT22;38621;52.830;6.914;2023-06-14T15:26:41;33.70;78.50
52725;DHT22;38621;52.830;6.914;2023-06-14T15:29:07;34.10;77.90
52725;DHT22;38621;52.830;6.914;2023-06-14T15:31:33;34.40;77.70
52725;DHT22;38621;52.830;6.914;2023-06-14T15:33:58;34.40;76.90
52725;DHT22;38621;52.830;6.914;2023-06-14T15:36:25;34.50;76.30
52725;DHT22;38621;52.830;6.914;2023-06-14T15:38:50;34.40;75.70
52725;DHT22;38621;52.830;6.914;2023-06-14T15:41:16;34.40;75.20
52725;DHT22;38621;52.830;6.914;2023-06-14T15:43:41;34.50;75.00